Archival Weather

Granbury Rgnl

Granbury, Texas (KGDJ)

Report from: Monday, January 29, 2024 11:35 PM UTC
Current time: Tuesday, June 18, 2024 1:17 PM UTC

Current weather – Weather history – Daily summaries
Weather forecast

Temperature19.2°C (66.6°F)
Dew point4.3°C (39.7°F)
Winds 5 kts (2.6 m/s, 5.8 mph) South-Southwest (210°)
Visibility10 mi. (16.1 km)
Clouds Sky clear
Altimeter30.21 in.Hg (1023 mB)
Relative humidity37 %
Density altitude288 ft. (88 m)
Remarks Fully automated report
Automated weather observing station with precipitation discriminator
Flight conditions Visual Meteorological Conditions
Raw dataKGDJ 292335Z AUTO 21005KT 10SM CLR 19/04 A3021 RMK AO2 T01920043
An error has occurred. This application may no longer respond until reloaded. Reload 🗙